Time;durP1;ratioP1;P1;durP2;ratioP2;P2;SDS_P1;SDS_P2;PMS_P1;PMS_P2;Temp;Humidity;BMP_temperature;BMP_pressure;BME280_temperature;BME280_humidity;BME280_pressure;Samples;Min_cycle;Max_cycle;Signal;HPM_P1;HPM_P2
2023/05/03 00:02:15;;;;;;;26.63;22.20;;;11.20;99.90;;;;;;5014317;28;20355;-74
2023/05/03 00:04:41;;;;;;;28.33;21.35;;;11.20;99.90;;;;;;4996347;28;20022;-74
2023/05/03 00:07:07;;;;;;;27.33;20.75;;;11.20;99.90;;;;;;4996508;28;20033;-74
2023/05/03 00:09:34;;;;;;;25.25;19.92;;;11.20;99.90;;;;;;4996569;28;20493;-74
2023/05/03 00:12:00;;;;;;;31.48;19.88;;;11.20;99.90;;;;;;5014184;28;20022;-73
2023/05/03 00:14:26;;;;;;;26.92;18.60;;;11.20;99.90;;;;;;4997110;28;20030;-74
2023/05/03 00:16:52;;;;;;;25.55;18.80;;;11.20;99.90;;;;;;5013845;28;20033;-74
2023/05/03 00:19:18;;;;;;;24.27;19.30;;;11.30;99.90;;;;;;5013375;28;20033;-73
2023/05/03 00:21:44;;;;;;;25.40;20.38;;;11.20;99.90;;;;;;4996415;28;20026;-74
2023/05/03 00:24:10;;;;;;;27.70;20.17;;;11.20;99.90;;;;;;5014133;28;20030;-73
2023/05/03 00:26:36;;;;;;;28.95;21.55;;;11.20;99.90;;;;;;5013976;28;20210;-74
2023/05/03 00:29:02;;;;;;;25.30;20.50;;;11.20;99.90;;;;;;4996417;28;20032;-74
2023/05/03 00:31:27;;;;;;;29.50;22.00;;;11.20;99.90;;;;;;5014382;28;20036;-74
2023/05/03 00:33:53;;;;;;;31.45;22.88;;;11.20;99.90;;;;;;5014278;28;20374;-74
2023/05/03 00:36:18;;;;;;;28.50;22.45;;;11.30;99.90;;;;;;5014116;28;20053;-74
2023/05/03 00:38:44;;;;;;;32.13;23.30;;;11.30;99.90;;;;;;5013632;28;20029;-74
2023/05/03 00:41:11;;;;;;;30.00;22.70;;;11.30;99.90;;;;;;4996356;28;20080;-73
2023/05/03 00:43:37;;;;;;;28.90;22.40;;;11.30;99.90;;;;;;5014416;28;20481;-73
2023/05/03 00:46:05;;;;;;;30.77;23.20;;;11.30;99.90;;;;;;5013836;28;20046;-73
2023/05/03 00:48:32;;;;;;;30.33;23.13;;;11.30;99.90;;;;;;5013521;28;20407;-73
2023/05/03 00:50:59;;;;;;;27.55;22.02;;;11.30;99.90;;;;;;5013837;28;20018;-74
2023/05/03 00:53:26;;;;;;;28.75;22.35;;;11.30;99.90;;;;;;5013804;28;20026;-73
2023/05/03 00:55:52;;;;;;;31.83;23.15;;;11.30;99.90;;;;;;4996173;28;20030;-74
2023/05/03 00:58:19;;;;;;;28.20;23.08;;;11.30;99.90;;;;;;5013791;28;20030;-74
2023/05/03 01:00:47;;;;;;;31.35;22.23;;;11.20;99.90;;;;;;4996368;28;20121;-73
2023/05/03 01:03:13;;;;;;;31.27;23.33;;;11.20;99.90;;;;;;4996169;28;20041;-74
2023/05/03 01:06:37;;;;;;;26.90;22.70;;;11.20;99.90;;;;;;4995790;28;20026;-73
2023/05/03 01:09:09;;;;;;;29.85;22.58;;;11.20;99.90;;;;;;4896336;29;20033;-74
2023/05/03 01:12:07;;;;;;;28.67;23.02;;;11.20;99.90;;;;;;4994093;28;20034;-74
2023/05/03 01:14:56;;;;;;;26.45;21.08;;;11.10;99.90;;;;;;5013861;28;20032;-73
2023/05/03 01:17:27;;;;;;;30.52;22.88;;;11.10;99.90;;;;;;5013334;28;20038;-74
2023/05/03 01:20:03;;;;;;;28.10;22.83;;;11.10;99.90;;;;;;5013654;28;20022;-74
2023/05/03 01:22:42;;;;;;;27.70;22.70;;;11.10;99.90;;;;;;5013591;28;20021;-73
2023/05/03 01:25:10;;;;;;;31.38;23.25;;;11.10;99.90;;;;;;5013687;28;20026;-73
2023/05/03 01:27:38;;;;;;;30.23;21.80;;;11.10;99.90;;;;;;5013144;28;20029;-73
2023/05/03 01:30:05;;;;;;;30.88;23.15;;;11.00;99.90;;;;;;4997733;28;20036;-74
2023/05/03 01:32:55;;;;;;;31.95;24.50;;;11.00;99.90;;;;;;5017098;28;20065;-73
2023/05/03 01:35:43;;;;;;;33.20;24.25;;;11.00;99.90;;;;;;4999484;28;20029;-73
2023/05/03 01:38:09;;;;;;;30.48;23.35;;;11.00;99.90;;;;;;4999284;28;20061;-73
2023/05/03 01:40:47;;;;;;;32.00;25.85;;;11.00;99.90;;;;;;5016851;28;20064;-74
2023/05/03 01:43:15;;;;;;;32.97;24.63;;;11.00;99.90;;;;;;4999620;28;20381;-73
2023/05/03 01:45:42;;;;;;;34.80;24.88;;;10.90;99.90;;;;;;5016673;28;20414;-73
2023/05/03 01:48:13;;;;;;;32.92;24.75;;;10.90;99.90;;;;;;5016348;28;20092;-73
2023/05/03 01:50:39;;;;;;;32.53;24.50;;;10.90;99.90;;;;;;4999157;28;20030;-73
2023/05/03 01:53:05;;;;;;;36.17;27.55;;;10.90;99.90;;;;;;5016693;28;20037;-73
2023/05/03 01:55:30;;;;;;;33.72;26.42;;;10.90;99.90;;;;;;5016620;28;20418;-73
2023/05/03 01:57:56;;;;;;;34.85;25.45;;;10.90;99.90;;;;;;5016935;28;20034;-73
2023/05/03 02:00:22;;;;;;;33.63;25.58;;;10.90;99.90;;;;;;5016301;28;20030;-73
2023/05/03 02:02:47;;;;;;;32.92;26.27;;;10.90;99.90;;;;;;4998899;28;20072;-73
2023/05/03 02:05:13;;;;;;;34.85;26.17;;;10.90;99.90;;;;;;4999128;28;20030;-73
2023/05/03 02:07:39;;;;;;;36.05;27.25;;;10.90;99.90;;;;;;5016260;28;20038;-73
2023/05/03 02:10:06;;;;;;;34.15;26.55;;;10.90;99.90;;;;;;5016286;28;20022;-73
2023/05/03 02:12:31;;;;;;;36.10;26.23;;;10.80;99.90;;;;;;5016307;28;20026;-73
2023/05/03 02:14:57;;;;;;;36.65;27.05;;;10.90;99.90;;;;;;5015987;28;20528;-73
2023/05/03 02:17:25;;;;;;;35.42;27.27;;;10.80;99.90;;;;;;4998561;28;20029;-73
2023/05/03 02:19:51;;;;;;;36.13;26.52;;;10.80;99.90;;;;;;5016165;28;20032;-73
2023/05/03 02:22:17;;;;;;;33.65;26.73;;;10.80;99.90;;;;;;4998561;28;20054;-73
2023/05/03 02:24:43;;;;;;;35.78;27.02;;;10.80;99.90;;;;;;5016035;28;20052;-73
2023/05/03 02:27:08;;;;;;;33.63;26.48;;;10.80;99.90;;;;;;4998417;28;20038;-74
2023/05/03 02:29:34;;;;;;;36.60;27.77;;;10.80;99.90;;;;;;4998135;28;20030;-73
2023/05/03 02:32:00;;;;;;;37.22;27.08;;;10.80;99.90;;;;;;5015946;28;20026;-73
2023/05/03 02:34:26;;;;;;;36.63;27.38;;;10.80;99.90;;;;;;5015869;28;20029;-73
2023/05/03 02:36:52;;;;;;;38.88;28.48;;;10.80;99.90;;;;;;5015802;28;20034;-73
2023/05/03 02:39:18;;;;;;;37.00;26.30;;;10.80;99.90;;;;;;5015570;28;20493;-73
2023/05/03 02:41:43;;;;;;;38.35;27.45;;;10.80;99.90;;;;;;4997484;28;20080;-74
2023/05/03 02:44:10;;;;;;;35.60;26.83;;;10.80;99.90;;;;;;4998160;28;20108;-73
2023/05/03 02:46:36;;;;;;;38.03;28.00;;;10.80;99.90;;;;;;4997770;28;20505;-73
2023/05/03 02:49:02;;;;;;;37.72;27.58;;;10.80;99.90;;;;;;5015440;28;20026;-73
2023/05/03 02:51:28;;;;;;;34.80;27.25;;;10.80;99.90;;;;;;4998225;28;20033;-73
2023/05/03 02:53:53;;;;;;;36.58;28.02;;;10.80;99.90;;;;;;5015522;28;20355;-74
2023/05/03 02:56:19;;;;;;;34.70;26.90;;;10.80;99.90;;;;;;4998082;28;20066;-74
2023/05/03 02:58:45;;;;;;;36.65;27.38;;;10.70;99.90;;;;;;4998207;28;20030;-73
2023/05/03 03:01:11;;;;;;;37.38;27.52;;;10.70;99.90;;;;;;4998182;28;20055;-74
2023/05/03 03:03:36;;;;;;;34.35;26.52;;;10.70;99.90;;;;;;5015386;28;20069;-74
2023/05/03 03:06:02;;;;;;;36.70;28.35;;;10.70;99.90;;;;;;5015613;28;20385;-74
2023/05/03 03:08:28;;;;;;;37.97;27.58;;;10.80;99.90;;;;;;5015168;28;20109;-74
2023/05/03 03:10:53;;;;;;;40.55;27.77;;;10.80;99.90;;;;;;4997911;28;20026;-73
2023/05/03 03:13:19;;;;;;;40.17;28.13;;;10.70;99.90;;;;;;5014866;28;20033;-73
2023/05/03 03:15:45;;;;;;;35.20;26.95;;;10.70;99.90;;;;;;5015119;28;20429;-74
2023/05/03 03:18:10;;;;;;;35.03;27.58;;;10.80;99.90;;;;;;4997498;28;20397;-74
2023/05/03 03:20:36;;;;;;;37.78;27.77;;;10.80;99.90;;;;;;4997711;28;20026;-74
2023/05/03 03:23:01;;;;;;;36.30;27.67;;;10.80;99.90;;;;;;5015212;28;20030;-74
2023/05/03 03:25:27;;;;;;;35.95;27.05;;;10.80;99.90;;;;;;5014965;28;20037;-73
2023/05/03 03:27:53;;;;;;;34.60;27.02;;;10.80;99.90;;;;;;5014830;28;20049;-73
2023/05/03 03:30:18;;;;;;;34.75;26.67;;;10.80;99.90;;;;;;5015086;28;20442;-73
2023/05/03 03:32:44;;;;;;;34.40;27.17;;;10.80;99.90;;;;;;5014926;28;20064;-78
2023/05/03 03:35:10;;;;;;;35.80;26.90;;;10.80;99.90;;;;;;5014996;28;20034;-73
2023/05/03 03:37:37;;;;;;;37.75;26.90;;;10.80;99.90;;;;;;4996865;28;20030;-73
2023/05/03 03:40:04;;;;;;;34.20;26.73;;;10.80;99.90;;;;;;5015127;28;20029;-73
2023/05/03 03:42:30;;;;;;;36.13;26.60;;;10.90;99.90;;;;;;4997260;28;20037;-73
2023/05/03 03:44:56;;;;;;;33.88;25.88;;;10.80;99.90;;;;;;5014157;28;20022;-73
2023/05/03 03:47:21;;;;;;;34.92;27.20;;;10.80;99.90;;;;;;4997062;28;20172;-73
2023/05/03 03:49:47;;;;;;;32.63;25.63;;;10.80;99.90;;;;;;5014544;28;20450;-73
2023/05/03 03:52:13;;;;;;;32.65;24.67;;;10.90;99.90;;;;;;4996578;28;20520;-73
2023/05/03 03:54:38;;;;;;;31.70;24.08;;;10.90;99.90;;;;;;5013941;28;20523;-73
2023/05/03 03:57:04;;;;;;;34.38;24.52;;;10.90;99.90;;;;;;4996780;28;20029;-73
2023/05/03 03:59:30;;;;;;;32.75;24.88;;;10.90;99.90;;;;;;4996811;28;20450;-73
2023/05/03 04:01:55;;;;;;;31.67;23.60;;;10.90;99.90;;;;;;4996728;28;20172;-73
2023/05/03 04:04:21;;;;;;;31.58;23.52;;;10.90;99.90;;;;;;5014308;28;20030;-72
2023/05/03 04:06:47;;;;;;;33.55;25.08;;;10.90;99.90;;;;;;5014269;28;20061;-72
2023/05/03 04:09:13;;;;;;;30.90;23.63;;;11.00;99.90;;;;;;4996664;28;20029;-72
2023/05/03 04:11:39;;;;;;;36.30;24.65;;;11.00;99.90;;;;;;4996682;28;20022;-73
2023/05/03 04:14:05;;;;;;;34.40;24.27;;;11.00;99.90;;;;;;5014262;28;20030;-73
2023/05/03 04:16:30;;;;;;;29.25;23.27;;;11.10;99.90;;;;;;5014328;28;20033;-73
2023/05/03 04:18:56;;;;;;;30.95;22.83;;;11.10;99.90;;;;;;4996950;28;20029;-73
2023/05/03 04:21:21;;;;;;;31.38;23.98;;;11.10;99.90;;;;;;5014114;28;20028;-73
2023/05/03 04:23:47;;;;;;;29.30;22.90;;;11.10;99.90;;;;;;4996479;28;20432;-73
2023/05/03 04:26:13;;;;;;;30.75;23.40;;;11.10;99.90;;;;;;5013957;28;20037;-72
2023/05/03 04:28:39;;;;;;;27.77;22.80;;;11.10;99.90;;;;;;4996545;28;20030;-72
2023/05/03 04:31:04;;;;;;;26.70;22.02;;;11.20;99.90;;;;;;5014138;28;20022;-72
2023/05/03 04:33:30;;;;;;;28.38;22.20;;;11.20;99.90;;;;;;5013695;28;20113;-72
2023/05/03 04:35:56;;;;;;;30.80;22.58;;;11.20;99.90;;;;;;5013928;28;20026;-72
2023/05/03 04:38:22;;;;;;;28.58;22.00;;;11.20;99.90;;;;;;5013905;28;20042;-73
2023/05/03 04:40:48;;;;;;;27.05;21.25;;;11.30;99.90;;;;;;4996337;28;20026;-70
2023/05/03 04:43:14;;;;;;;27.23;21.38;;;11.30;99.90;;;;;;4996353;28;20381;-72
2023/05/03 04:45:40;;;;;;;26.55;21.45;;;11.30;99.90;;;;;;5013584;28;20050;-71
2023/05/03 04:48:06;;;;;;;29.38;20.88;;;11.30;99.90;;;;;;5013901;28;20038;-71
2023/05/03 04:50:35;;;;;;;26.17;21.10;;;11.40;99.90;;;;;;5013691;28;20134;-71
2023/05/03 04:53:01;;;;;;;28.80;20.77;;;11.40;99.90;;;;;;5013531;28;20022;-69
2023/05/03 04:55:27;;;;;;;26.83;21.38;;;11.40;99.90;;;;;;4996636;28;20117;-72
2023/05/03 04:57:54;;;;;;;29.42;21.85;;;11.40;99.90;;;;;;4996125;28;20034;-69
2023/05/03 05:00:20;;;;;;;29.77;21.55;;;11.50;99.90;;;;;;4996094;28;20080;-71
2023/05/03 05:02:45;;;;;;;27.27;20.52;;;11.50;99.90;;;;;;4996422;28;20030;-71
2023/05/03 05:05:11;;;;;;;26.13;20.17;;;11.60;99.90;;;;;;5015874;28;20109;-71
2023/05/03 05:07:37;;;;;;;23.80;18.73;;;11.70;99.90;;;;;;5017259;28;20041;-69
2023/05/03 05:10:02;;;;;;;27.50;18.90;;;11.80;99.90;;;;;;5017298;28;20030;-74
2023/05/03 05:12:28;;;;;;;21.85;18.52;;;11.80;99.90;;;;;;5017383;28;20484;-73
2023/05/03 05:14:54;;;;;;;26.42;19.83;;;11.80;99.90;;;;;;5017710;28;20377;-73
2023/05/03 05:17:20;;;;;;;20.88;17.30;;;11.80;99.90;;;;;;5017543;28;20079;-74
2023/05/03 05:19:46;;;;;;;22.38;19.08;;;11.80;99.90;;;;;;5017488;28;20061;-74
2023/05/03 05:22:11;;;;;;;26.15;18.85;;;11.90;99.90;;;;;;5017142;28;20484;-73
2023/05/03 05:24:37;;;;;;;22.40;17.83;;;11.90;99.90;;;;;;5017417;28;20064;-73
2023/05/03 05:27:03;;;;;;;20.77;17.33;;;11.90;99.90;;;;;;4999395;28;20061;-73
2023/05/03 05:29:29;;;;;;;22.75;18.27;;;;;;;;;;4999537;28;20033;-74
2023/05/03 05:31:55;;;;;;;25.77;18.20;;;12.00;99.90;;;;;;5016940;28;20100;-74
2023/05/03 05:34:20;;;;;;;20.52;17.85;;;12.10;99.90;;;;;;4999405;28;20534;-74
2023/05/03 05:36:46;;;;;;;24.13;18.67;;;12.10;99.90;;;;;;5016928;28;20034;-74
2023/05/03 05:39:12;;;;;;;22.83;18.30;;;12.10;99.90;;;;;;5016689;28;20466;-73
2023/05/03 05:41:38;;;;;;;20.48;17.55;;;12.20;99.90;;;;;;5016813;28;20378;-73
2023/05/03 05:44:03;;;;;;;19.60;16.48;;;12.20;99.90;;;;;;5016803;28;20034;-73
2023/05/03 05:46:29;;;;;;;22.23;16.98;;;12.30;99.90;;;;;;5016784;28;20057;-73
2023/05/03 05:48:55;;;;;;;24.58;17.00;;;12.40;99.90;;;;;;5016672;28;20369;-73
2023/05/03 05:51:21;;;;;;;19.25;16.48;;;12.50;99.90;;;;;;4999059;28;20080;-73
2023/05/03 05:53:46;;;;;;;20.67;15.80;;;12.80;99.90;;;;;;4998737;28;20026;-73
2023/05/03 05:56:12;;;;;;;19.67;15.27;;;13.00;99.90;;;;;;5016787;28;20080;-71
2023/05/03 05:58:38;;;;;;;22.85;14.90;;;13.30;99.90;;;;;;5016181;28;20021;-73
2023/05/03 06:01:04;;;;;;;17.58;14.35;;;13.50;99.90;;;;;;5016410;28;20104;-74
2023/05/03 06:03:30;;;;;;;22.88;14.98;;;13.50;99.90;;;;;;5016473;28;20117;-73
2023/05/03 06:05:56;;;;;;;18.63;13.50;;;13.50;99.90;;;;;;4998571;28;20037;-62
2023/05/03 06:08:22;;;;;;;17.02;14.10;;;13.50;99.90;;;;;;5016080;28;20191;-62
2023/05/03 06:10:48;;;;;;;18.15;13.95;;;13.40;99.90;;;;;;4998897;28;20390;-62
2023/05/03 06:13:13;;;;;;;16.23;14.50;;;13.30;99.90;;;;;;4998191;28;20469;-62
2023/05/03 06:15:40;;;;;;;18.88;14.40;;;13.30;99.90;;;;;;4997629;28;20041;-62
2023/05/03 06:18:05;;;;;;;19.80;13.77;;;13.30;99.90;;;;;;4998248;28;20038;-62
2023/05/03 06:20:31;;;;;;;17.73;14.27;;;13.10;99.90;;;;;;4998184;28;20084;-62
2023/05/03 06:22:57;;;;;;;22.02;14.95;;;13.10;99.90;;;;;;4998411;28;20180;-62
2023/05/03 06:25:22;;;;;;;20.10;15.52;;;13.00;99.90;;;;;;5016553;28;20045;-62
2023/05/03 06:27:48;;;;;;;24.27;16.67;;;12.90;99.90;;;;;;4998377;28;20030;-62
2023/05/03 06:30:14;;;;;;;20.90;15.73;;;12.90;99.90;;;;;;5015514;28;20026;-62
2023/05/03 06:32:41;;;;;;;18.33;16.20;;;12.90;99.90;;;;;;5016124;28;20022;-62
2023/05/03 06:35:08;;;;;;;25.40;15.77;;;12.90;99.90;;;;;;5015887;28;20033;-62
2023/05/03 06:37:34;;;;;;;18.85;15.85;;;13.00;99.90;;;;;;5015710;28;20038;-62
2023/05/03 06:40:00;;;;;;;19.73;16.52;;;13.10;99.90;;;;;;5015718;28;20116;-62
2023/05/03 06:42:26;;;;;;;20.38;15.63;;;13.20;99.90;;;;;;4998067;28;20430;-62
2023/05/03 06:44:52;;;;;;;17.83;15.30;;;13.40;99.90;;;;;;5015385;28;20026;-62
2023/05/03 06:47:19;;;;;;;21.58;15.43;;;13.40;99.90;;;;;;5015311;28;20034;-62
2023/05/03 06:49:45;;;;;;;19.13;15.13;;;13.50;99.90;;;;;;4997881;28;20041;-62
2023/05/03 06:52:10;;;;;;;18.90;15.07;;;13.40;99.90;;;;;;4997794;28;20022;-62
2023/05/03 06:54:36;;;;;;;18.95;15.70;;;13.60;99.90;;;;;;5015432;28;20447;-62
2023/05/03 06:57:03;;;;;;;19.13;14.25;;;13.80;99.90;;;;;;5015302;28;20544;-72
2023/05/03 06:59:29;;;;;;;17.67;13.30;;;14.00;99.90;;;;;;5015462;28;20030;-73
2023/05/03 07:01:55;;;;;;;18.10;14.75;;;14.20;99.90;;;;;;5015278;28;20080;-73
2023/05/03 07:04:20;;;;;;;18.02;12.85;;;14.20;99.90;;;;;;5015535;28;20030;-73
2023/05/03 07:06:46;;;;;;;15.98;13.73;;;14.40;99.90;;;;;;5015073;28;20516;-73
2023/05/03 07:09:12;;;;;;;16.75;12.43;;;14.90;99.90;;;;;;4997210;28;20042;-73
2023/05/03 07:11:43;;;;;;;15.35;11.32;;;15.30;99.90;;;;;;4997506;28;20037;-73
2023/05/03 07:14:09;;;;;;;14.27;12.63;;;15.60;99.90;;;;;;4997442;28;20022;-73
2023/05/03 07:16:35;;;;;;;13.93;11.98;;;15.70;99.90;;;;;;4997351;28;20029;-74
2023/05/03 07:19:00;;;;;;;15.30;11.90;;;15.70;99.90;;;;;;5014917;28;20520;-73
2023/05/03 07:21:28;;;;;;;16.08;12.68;;;15.50;99.90;;;;;;5014877;28;20030;-73
2023/05/03 07:23:53;;;;;;;17.52;12.98;;;15.10;99.90;;;;;;4997306;28;20434;-73
2023/05/03 07:26:19;;;;;;;16.67;12.55;;;15.00;99.90;;;;;;5015156;28;20116;-73
2023/05/03 07:28:45;;;;;;;14.95;12.82;;;15.10;99.90;;;;;;5014591;28;20026;-73
2023/05/03 07:31:11;;;;;;;14.70;12.35;;;15.30;99.90;;;;;;5014720;28;20386;-73
2023/05/03 07:33:36;;;;;;;14.50;11.77;;;15.40;99.90;;;;;;4997469;28;20030;-73
2023/05/03 07:36:03;;;;;;;21.88;12.73;;;15.40;99.90;;;;;;4997022;28;20037;-73
2023/05/03 07:38:29;;;;;;;15.20;12.20;;;15.40;99.90;;;;;;4996970;28;20045;-73
2023/05/03 07:40:55;;;;;;;15.52;12.02;;;15.40;99.90;;;;;;5014777;28;20022;-73
2023/05/03 07:43:22;;;;;;;15.18;12.80;;;15.00;99.90;;;;;;5014652;28;20022;-73
2023/05/03 07:45:48;;;;;;;15.90;12.50;;;15.10;99.90;;;;;;5014347;28;20136;-73
2023/05/03 07:48:14;;;;;;;13.57;10.80;;;15.30;99.90;;;;;;4996789;28;20560;-73
2023/05/03 07:50:43;;;;;;;16.88;11.85;;;15.40;99.90;;;;;;5014493;28;20026;-73
2023/05/03 07:53:11;;;;;;;15.98;12.02;;;15.70;99.90;;;;;;4996721;28;20022;-73
2023/05/03 07:55:37;;;;;;;16.63;11.85;;;15.80;99.90;;;;;;4996710;28;20033;-73
2023/05/03 07:58:03;;;;;;;14.73;11.55;;;16.00;99.90;;;;;;5013986;28;20034;-73
2023/05/03 08:00:29;;;;;;;17.15;10.82;;;16.40;99.90;;;;;;4996334;28;20029;-73
2023/05/03 08:02:55;;;;;;;21.10;11.55;;;16.80;99.90;;;;;;5014237;28;20052;-73
2023/05/03 08:05:22;;;;;;;11.82;9.98;;;17.10;99.90;;;;;;5014258;28;20080;-73
2023/05/03 08:07:48;;;;;;;14.38;10.23;;;17.20;99.90;;;;;;5014057;28;20029;-73
2023/05/03 08:10:14;;;;;;;16.42;9.95;;;17.30;99.90;;;;;;4997044;28;20366;-73
2023/05/03 08:12:40;;;;;;;11.75;10.23;;;17.60;99.90;;;;;;5014366;28;20370;-73
2023/05/03 08:15:06;;;;;;;10.43;9.40;;;17.80;99.90;;;;;;5013909;28;20036;-73
2023/05/03 08:17:38;;;;;;;12.50;9.43;;;18.10;99.90;;;;;;4996371;28;20045;-73
2023/05/03 08:20:06;;;;;;;12.68;9.23;;;18.20;99.90;;;;;;5014173;28;20022;-73
2023/05/03 08:22:31;;;;;;;11.80;9.40;;;17.70;99.90;;;;;;4996751;28;20026;-73
2023/05/03 08:24:57;;;;;;;12.30;8.57;;;18.10;99.90;;;;;;5013985;28;20030;-73
2023/05/03 08:27:24;;;;;;;10.13;8.40;;;18.70;99.90;;;;;;5013846;28;20529;-73
2023/05/03 08:29:50;;;;;;;9.50;8.50;;;19.20;99.90;;;;;;5013883;28;20022;-73
2023/05/03 08:32:16;;;;;;;9.48;8.25;;;19.80;99.20;;;;;;5014050;28;20034;-73
2023/05/03 08:34:42;;;;;;;7.57;6.72;;;20.40;98.30;;;;;;5013933;28;20183;-73
2023/05/03 08:37:07;;;;;;;8.35;7.00;;;21.00;97.20;;;;;;4996180;28;20034;-73
2023/05/03 08:39:33;;;;;;;12.35;7.40;;;21.60;94.50;;;;;;5015153;28;20053;-73
2023/05/03 08:41:59;;;;;;;13.00;8.82;;;21.10;93.70;;;;;;5017917;28;20101;-72
2023/05/03 08:44:28;;;;;;;10.40;8.43;;;19.70;94.20;;;;;;5017880;28;20028;-72
2023/05/03 08:46:53;;;;;;;10.68;8.55;;;18.60;96.70;;;;;;4999949;28;20081;-72
2023/05/03 08:49:20;;;;;;;11.20;8.48;;;18.50;99.50;;;;;;5017418;28;20053;-72
2023/05/03 08:51:48;;;;;;;9.60;7.93;;;18.80;98.80;;;;;;5000146;28;20054;-72
2023/05/03 08:54:19;;;;;;;8.55;7.07;;;19.10;97.60;;;;;;4999960;28;20036;-72
2023/05/03 08:56:46;;;;;;;10.73;7.63;;;19.10;96.80;;;;;;5017631;28;20053;-72
2023/05/03 08:59:12;;;;;;;9.25;7.20;;;18.80;96.70;;;;;;5017664;28;20026;-72
2023/05/03 09:01:39;;;;;;;9.90;6.75;;;19.00;96.70;;;;;;5017721;28;20061;-72
2023/05/03 09:04:06;;;;;;;10.77;6.60;;;19.00;96.70;;;;;;5017700;28;20022;-72
2023/05/03 09:06:33;;;;;;;12.63;6.68;;;19.50;95.00;;;;;;4999658;28;20359;-73
2023/05/03 09:08:59;;;;;;;8.02;5.90;;;20.10;93.90;;;;;;4999847;28;20064;-72
2023/05/03 09:11:27;;;;;;;7.93;7.13;;;20.90;91.10;;;;;;5017444;28;20034;-73
2023/05/03 09:13:53;;;;;;;8.05;6.82;;;21.00;90.90;;;;;;5017320;28;20033;-73
2023/05/03 09:16:26;;;;;;;8.60;6.80;;;20.40;91.20;;;;;;4999697;28;20022;-73
2023/05/03 09:19:10;;;;;;;11.60;6.93;;;19.60;92.20;;;;;;4999632;28;20496;-72
2023/05/03 09:21:36;;;;;;;10.52;7.20;;;19.30;93.80;;;;;;5017044;28;20032;-72
2023/05/03 09:24:20;;;;;;;7.10;6.40;;;18.60;93.70;;;;;;5016877;28;20029;-72
2023/05/03 09:26:48;;;;;;;7.63;6.25;;;19.00;95.90;;;;;;4999670;28;20037;-73
2023/05/03 09:29:33;;;;;;;6.82;6.22;;;19.00;95.30;;;;;;4999311;28;20030;-72
2023/05/03 09:32:07;;;;;;;8.63;6.32;;;19.20;94.70;;;;;;5016990;28;20022;-73
2023/05/03 09:34:34;;;;;;;10.07;5.95;;;20.10;92.50;;;;;;4999510;28;20026;-72
2023/05/03 09:37:00;;;;;;;7.63;5.15;;;20.20;91.00;;;;;;4999319;28;20030;-72
2023/05/03 09:39:26;;;;;;;8.68;5.82;;;20.30;91.60;;;;;;5016848;28;20501;-73
2023/05/03 09:41:52;;;;;;;7.53;5.22;;;20.50;90.30;;;;;;5016945;28;20069;-73
2023/05/03 09:44:18;;;;;;;5.80;5.28;;;21.00;86.40;;;;;;4999150;28;20411;-73
2023/05/03 09:47:05;;;;;;;7.70;5.68;;;21.00;82.10;;;;;;5016934;28;20061;-73
2023/05/03 09:49:37;;;;;;;5.75;4.75;;;20.40;84.20;;;;;;4999123;28;20065;-73
2023/05/03 09:52:03;;;;;;;6.72;5.22;;;20.50;83.10;;;;;;5016804;28;20026;-72
2023/05/03 09:54:34;;;;;;;5.40;4.90;;;20.50;83.80;;;;;;4999370;28;20053;-73
2023/05/03 09:57:01;;;;;;;8.27;5.22;;;21.00;80.00;;;;;;4999448;28;20041;-73
2023/05/03 09:59:27;;;;;;;6.53;4.65;;;21.50;77.40;;;;;;5016317;28;20025;-72
2023/05/03 10:01:57;;;;;;;7.47;4.38;;;20.90;76.00;;;;;;4998891;28;20041;-72
2023/05/03 10:04:25;;;;;;;6.95;4.60;;;20.60;78.20;;;;;;5016463;28;20466;-72
2023/05/03 10:06:56;;;;;;;5.95;5.25;;;20.00;78.20;;;;;;5016204;28;20084;-72
2023/05/03 10:09:38;;;;;;;6.07;4.60;;;20.10;80.40;;;;;;4999198;28;20040;-72
2023/05/03 10:12:11;;;;;;;5.18;4.32;;;20.80;77.00;;;;;;4998668;28;20033;-72
2023/05/03 10:14:40;;;;;;;7.72;5.05;;;21.60;73.30;;;;;;5016027;28;20048;-73
2023/05/03 10:17:12;;;;;;;6.30;4.70;;;21.20;70.80;;;;;;5016303;28;20033;-73
2023/05/03 10:19:51;;;;;;;5.78;4.68;;;20.70;72.40;;;;;;4998587;28;20458;-73
2023/05/03 10:22:17;;;;;;;6.47;4.10;;;20.40;74.00;;;;;;5016105;28;20092;-73
2023/05/03 10:25:01;;;;;;;5.05;4.20;;;20.10;74.50;;;;;;5016046;28;20458;-73
2023/05/03 10:27:44;;;;;;;6.32;4.10;;;20.70;71.70;;;;;;5015939;28;20056;-74
2023/05/03 10:30:31;;;;;;;4.47;4.07;;;21.20;66.40;;;;;;4998550;28;20497;-73
2023/05/03 10:32:59;;;;;;;5.30;4.32;;;21.60;66.70;;;;;;5015499;28;20030;-73
2023/05/03 10:35:28;;;;;;;5.13;4.63;;;22.00;65.60;;;;;;5015879;28;20037;-73
2023/05/03 10:37:58;;;;;;;5.13;3.70;;;22.00;64.90;;;;;;4997881;28;20122;-73
2023/05/03 10:40:40;;;;;;;4.50;3.97;;;22.40;64.60;;;;;;4998140;28;20041;-74
2023/05/03 10:43:06;;;;;;;5.40;3.83;;;22.00;62.40;;;;;;5015954;28;20026;-73
2023/05/03 10:45:32;;;;;;;6.60;3.85;;;21.30;63.80;;;;;;4998099;28;20052;-73
2023/05/03 10:48:09;;;;;;;7.43;4.28;;;20.40;66.70;;;;;;4997637;28;20553;-73
2023/05/03 10:50:36;;;;;;;7.15;4.00;;;20.10;69.10;;;;;;5015725;28;20034;-73
2023/05/03 10:53:01;;;;;;;5.50;4.53;;;19.80;70.60;;;;;;4997820;28;20125;-74
2023/05/03 10:55:27;;;;;;;7.57;4.43;;;19.40;71.80;;;;;;5015012;28;20107;-74
2023/05/03 10:57:56;;;;;;;4.95;4.45;;;19.00;74.40;;;;;;5015411;28;20169;-74
2023/05/03 11:00:26;;;;;;;4.80;4.40;;;18.60;75.70;;;;;;4997973;28;20108;-73
2023/05/03 11:03:18;;;;;;;6.07;4.90;;;18.40;76.80;;;;;;5014521;28;20054;-73
2023/05/03 11:05:46;;;;;;;7.47;4.18;;;18.10;77.80;;;;;;4997890;28;20026;-74
2023/05/03 11:08:17;;;;;;;6.57;5.00;;;17.90;80.10;;;;;;5015184;28;20030;-73
2023/05/03 11:10:44;;;;;;;10.02;5.03;;;17.70;80.00;;;;;;4997512;28;20052;-73
2023/05/03 11:13:10;;;;;;;10.05;4.40;;;17.50;82.30;;;;;;5015056;28;20057;-73
2023/05/03 11:15:37;;;;;;;8.48;5.35;;;17.50;84.30;;;;;;4997526;28;20026;-74
2023/05/03 11:18:05;;;;;;;7.47;4.78;;;17.60;84.90;;;;;;5015171;28;20030;-74
2023/05/03 11:20:31;;;;;;;6.95;4.35;;;17.70;85.50;;;;;;4997372;28;20026;-73
2023/05/03 11:22:57;;;;;;;6.97;4.30;;;17.60;85.30;;;;;;4997499;28;20036;-74
2023/05/03 11:25:22;;;;;;;6.38;5.35;;;17.80;86.40;;;;;;4996952;28;20026;-74
2023/05/03 11:27:48;;;;;;;8.77;5.20;;;17.80;84.40;;;;;;5014693;28;20026;-74
2023/05/03 11:30:14;;;;;;;6.20;5.05;;;17.80;85.60;;;;;;5014698;28;20034;-74
2023/05/03 11:32:43;;;;;;;7.05;5.63;;;18.00;85.40;;;;;;4997395;28;20029;-74
2023/05/03 11:35:11;;;;;;;4.97;4.47;;;18.00;85.50;;;;;;5014418;28;20493;-74
2023/05/03 11:37:36;;;;;;;6.57;4.47;;;18.20;86.00;;;;;;5014512;28;20037;-74
2023/05/03 11:40:03;;;;;;;5.97;4.40;;;18.30;83.90;;;;;;5014649;28;20032;-73
2023/05/03 11:42:29;;;;;;;6.72;5.03;;;18.40;83.70;;;;;;4997561;28;20022;-73
2023/05/03 11:44:55;;;;;;;9.43;4.40;;;18.60;83.40;;;;;;5014425;28;20516;-73
2023/05/03 11:47:21;;;;;;;6.57;4.50;;;18.70;82.20;;;;;;4997241;28;20030;-72
2023/05/03 11:49:53;;;;;;;5.28;4.72;;;18.90;83.80;;;;;;5013993;28;20363;-73
2023/05/03 11:52:23;;;;;;;5.32;4.82;;;18.80;81.50;;;;;;5014412;28;20030;-69
2023/05/03 11:54:50;;;;;;;13.70;6.35;;;18.80;81.50;;;;;;5014289;28;20085;-72
2023/05/03 11:57:16;;;;;;;8.27;5.07;;;18.90;82.30;;;;;;5014231;28;20026;-72
2023/05/03 11:59:43;;;;;;;9.80;5.55;;;18.80;81.50;;;;;;4996440;28;20451;-71
2023/05/03 12:02:11;;;;;;;5.57;4.35;;;18.70;81.50;;;;;;4997151;28;20467;-71
2023/05/03 12:04:40;;;;;;;19.10;4.90;;;18.70;81.20;;;;;;5014297;28;20026;-71
2023/05/03 12:07:07;;;;;;;6.45;4.30;;;18.40;82.80;;;;;;4996499;28;20036;-71
2023/05/03 12:09:34;;;;;;;5.97;4.70;;;18.40;83.90;;;;;;4996356;28;20030;-71
2023/05/03 12:12:01;;;;;;;5.57;4.05;;;18.10;82.80;;;;;;5014164;28;20034;-70
2023/05/03 12:14:27;;;;;;;4.82;4.00;;;17.80;83.90;;;;;;4995721;28;20033;-70
2023/05/03 12:16:54;;;;;;;6.30;4.57;;;17.70;86.10;;;;;;5014021;28;20036;-71
2023/05/03 12:19:28;;;;;;;5.68;3.95;;;17.50;86.00;;;;;;5014087;28;20037;-71
2023/05/03 12:21:54;;;;;;;4.57;3.65;;;17.40;86.40;;;;;;5014485;28;20028;-71
2023/05/03 12:24:22;;;;;;;4.60;3.45;;;17.30;85.60;;;;;;5014363;28;20017;-71
2023/05/03 12:26:48;;;;;;;6.03;3.40;;;17.20;87.20;;;;;;4996307;28;20121;-70
2023/05/03 12:29:15;;;;;;;4.07;3.78;;;17.10;87.00;;;;;;5013847;28;20026;-71
2023/05/03 12:31:41;;;;;;;4.38;3.97;;;17.10;88.10;;;;;;5013818;28;20021;-71
2023/05/03 12:34:07;;;;;;;7.72;4.68;;;17.10;89.00;;;;;;4996335;28;20061;-71
2023/05/03 12:36:34;;;;;;;10.30;4.90;;;17.00;90.00;;;;;;5013920;28;20049;-72